createdAt,value
2019-02-09T00:02:06.905Z,4.87
2019-02-09T00:04:37.278Z,5.60
2019-02-09T00:07:07.711Z,7.40
2019-02-09T00:09:38.069Z,7.13
2019-02-09T00:12:08.416Z,3.53
2019-02-09T00:14:38.805Z,3.40
2019-02-09T00:17:09.435Z,3.83
2019-02-09T00:19:39.995Z,6.13
2019-02-09T00:22:10.341Z,3.50
2019-02-09T00:24:40.956Z,4.73
2019-02-09T00:27:11.417Z,6.07
2019-02-09T00:29:46.486Z,4.17
2019-02-09T00:32:14.133Z,4.27
2019-02-09T00:34:44.385Z,6.30
2019-02-09T00:37:14.805Z,4.13
2019-02-09T00:39:45.273Z,4.17
2019-02-09T00:42:15.525Z,4.13
2019-02-09T00:44:45.848Z,4.50
2019-02-09T00:47:16.381Z,3.40
2019-02-09T00:49:46.649Z,3.67
2019-02-09T00:52:17.011Z,3.63
2019-02-09T00:54:47.370Z,2.67
2019-02-09T00:57:17.832Z,4.53
2019-02-09T00:59:53.950Z,4.70
2019-02-09T01:02:20.198Z,5.23
2019-02-09T01:04:50.439Z,2.80
2019-02-09T01:07:20.809Z,4.00
2019-02-09T01:09:51.100Z,6.10
2019-02-09T01:12:21.424Z,3.73
2019-02-09T01:14:51.642Z,3.43
2019-02-09T01:17:21.974Z,5.93
2019-02-09T01:19:52.307Z,4.20
2019-02-09T01:22:23.970Z,5.87
2019-02-09T01:24:54.253Z,4.63
2019-02-09T01:27:24.945Z,5.03
2019-02-09T01:30:02.176Z,5.80
2019-02-09T01:32:27.285Z,3.93
2019-02-09T01:34:57.578Z,3.97
2019-02-09T01:37:27.892Z,4.97
2019-02-09T01:39:58.238Z,2.60
2019-02-09T01:42:28.737Z,4.90
2019-02-09T01:44:59.044Z,5.03
2019-02-09T01:47:29.697Z,7.10
2019-02-09T01:50:00.042Z,3.33
2019-02-09T01:52:30.561Z,6.03
2019-02-09T01:55:00.953Z,7.50
2019-02-09T01:57:31.315Z,4.40
2019-02-09T02:00:01.615Z,4.27
2019-02-09T02:02:31.944Z,3.67
2019-02-09T02:05:02.335Z,4.33
2019-02-09T02:07:32.599Z,5.50
2019-02-09T02:10:03.258Z,3.57
2019-02-09T02:12:33.532Z,3.63
2019-02-09T02:15:05.456Z,3.87
2019-02-09T02:17:35.782Z,4.50
2019-02-09T02:20:07.659Z,7.27
2019-02-09T02:22:38.066Z,5.43
2019-02-09T02:25:08.814Z,3.57
2019-02-09T02:27:39.232Z,7.73
2019-02-09T02:30:22.170Z,4.90
2019-02-09T02:32:44.268Z,5.63
2019-02-09T02:35:15.117Z,5.33
2019-02-09T02:37:45.470Z,3.30
2019-02-09T02:40:17.002Z,3.97
2019-02-09T02:42:47.355Z,3.27
2019-02-09T02:45:18.382Z,7.50
2019-02-09T02:47:48.990Z,5.30
2019-02-09T02:50:21.121Z,5.67
2019-02-09T02:52:51.560Z,4.00
2019-02-09T02:55:23.531Z,3.00
2019-02-09T02:57:54.366Z,4.93
2019-02-09T03:00:32.357Z,6.87
2019-02-09T03:03:01.778Z,4.93
2019-02-09T03:05:32.018Z,4.10
2019-02-09T03:08:02.316Z,5.17
2019-02-09T03:10:32.643Z,5.03
2019-02-09T03:13:03.077Z,5.43
2019-02-09T03:15:52.384Z,5.77
2019-02-09T03:18:22.665Z,5.00
2019-02-09T03:20:53.006Z,4.33
2019-02-09T03:23:23.364Z,5.90
2019-02-09T03:25:53.626Z,4.53
2019-02-09T03:28:23.880Z,4.70
2019-02-09T03:30:54.203Z,3.53
2019-02-09T03:33:24.567Z,5.73
2019-02-09T03:35:54.843Z,8.17
2019-02-09T03:38:25.094Z,4.87
2019-02-09T03:40:55.372Z,4.63
2019-02-09T03:43:25.625Z,4.50
2019-02-09T03:45:55.928Z,5.83
2019-02-09T03:48:26.468Z,3.20
2019-02-09T03:50:56.680Z,3.77
2019-02-09T03:53:26.890Z,3.60
2019-02-09T03:55:58.579Z,3.53
2019-02-09T03:58:28.736Z,3.17
2019-02-09T04:00:59.147Z,3.63
2019-02-09T04:03:29.524Z,4.37
2019-02-09T04:05:59.787Z,4.27
2019-02-09T04:08:33.033Z,3.93
2019-02-09T04:11:03.377Z,2.67
2019-02-09T04:13:33.674Z,1.73
2019-02-09T04:16:06.568Z,1.90
2019-02-09T04:18:36.780Z,3.20
2019-02-09T04:21:07.036Z,2.03
2019-02-09T04:23:37.400Z,3.93
2019-02-09T04:26:07.700Z,2.83
2019-02-09T04:28:37.968Z,2.23
2019-02-09T04:31:08.240Z,2.13
2019-02-09T04:33:38.558Z,2.43
2019-02-09T04:36:08.793Z,1.70
2019-02-09T04:38:39.047Z,1.50
2019-02-09T04:41:09.264Z,1.13
2019-02-09T04:43:39.394Z,3.67
2019-02-09T04:46:09.618Z,2.40
2019-02-09T04:48:39.946Z,1.17
2019-02-09T04:51:10.276Z,2.77
2019-02-09T04:53:40.474Z,2.70
2019-02-09T04:56:10.788Z,2.80
2019-02-09T04:58:41.079Z,3.13
2019-02-09T05:01:14.161Z,1.40
2019-02-09T05:03:43.673Z,3.83
2019-02-09T05:06:13.984Z,1.57
2019-02-09T05:08:47.107Z,1.30
2019-02-09T05:11:17.370Z,5.27
2019-02-09T05:13:47.768Z,2.53
2019-02-09T05:16:18.031Z,3.50
2019-02-09T05:18:48.304Z,1.90
2019-02-09T05:21:18.642Z,2.03
2019-02-09T05:23:48.950Z,2.30
2019-02-09T05:26:19.218Z,2.87
2019-02-09T05:28:49.497Z,3.27
2019-02-09T05:31:23.136Z,2.23
2019-02-09T05:33:55.025Z,2.60
2019-02-09T05:36:25.354Z,2.00
2019-02-09T05:38:55.672Z,1.77
2019-02-09T05:41:25.949Z,1.60
2019-02-09T05:43:56.294Z,3.43
2019-02-09T05:46:26.608Z,2.30
2019-02-09T05:48:56.935Z,2.40
2019-02-09T05:51:27.655Z,3.60
2019-02-09T05:53:57.986Z,3.40
2019-02-09T05:56:28.321Z,3.20
2019-02-09T05:58:58.529Z,3.30
2019-02-09T06:01:32.289Z,3.07
2019-02-09T06:04:00.714Z,3.87
2019-02-09T06:06:31.125Z,1.70
2019-02-09T06:09:01.513Z,2.33
2019-02-09T06:11:31.860Z,1.87
2019-02-09T06:14:02.081Z,2.27
2019-02-09T06:16:32.514Z,4.67
2019-02-09T06:19:02.782Z,2.13
2019-02-09T06:21:36.025Z,2.50
2019-02-09T06:24:06.221Z,2.73
2019-02-09T06:26:36.336Z,3.80
2019-02-09T06:29:06.579Z,3.50
2019-02-09T06:31:41.014Z,2.07
2019-02-09T06:34:08.509Z,4.20
2019-02-09T06:36:38.683Z,3.47
2019-02-09T06:39:09.344Z,2.67
2019-02-09T06:41:41.446Z,2.37
2019-02-09T06:44:11.727Z,3.40
2019-02-09T06:46:42.053Z,2.87
2019-02-09T06:49:12.248Z,3.87
2019-02-09T06:51:42.579Z,3.20
2019-02-09T06:54:13.082Z,3.00
2019-02-09T06:56:43.698Z,2.97
2019-02-09T06:59:14.243Z,6.23
2019-02-09T07:01:48.757Z,4.07
2019-02-09T07:04:17.275Z,4.20
2019-02-09T07:06:47.989Z,3.13
2019-02-09T07:09:18.531Z,3.93
2019-02-09T07:11:49.073Z,4.17
2019-02-09T07:14:19.869Z,2.93
2019-02-09T07:16:50.285Z,4.30
2019-02-09T07:19:20.789Z,6.30
2019-02-09T07:21:51.463Z,4.70
2019-02-09T07:24:21.929Z,5.30
2019-02-09T07:26:52.470Z,4.63
2019-02-09T07:29:23.019Z,3.23
2019-02-09T07:31:56.563Z,5.83
2019-02-09T07:34:25.343Z,4.40
2019-02-09T07:36:55.891Z,3.10
2019-02-09T07:39:26.455Z,3.87
2019-02-09T07:41:56.905Z,7.60
2019-02-09T07:44:27.569Z,4.80
2019-02-09T07:46:58.343Z,6.77
2019-02-09T07:49:29.035Z,3.90
2019-02-09T07:51:59.584Z,3.77
2019-02-09T07:54:30.113Z,6.33
2019-02-09T07:57:00.932Z,5.60
2019-02-09T07:59:31.503Z,5.87
2019-02-09T08:02:04.690Z,4.07
2019-02-09T08:04:34.846Z,6.13
2019-02-09T08:07:05.806Z,4.40
2019-02-09T08:09:36.379Z,4.70
2019-02-09T08:12:09.238Z,3.20
2019-02-09T08:14:40.185Z,5.93
2019-02-09T08:17:10.856Z,4.17
2019-02-09T08:19:41.405Z,5.13
2019-02-09T08:22:11.997Z,5.20
2019-02-09T08:24:46.304Z,7.00
2019-02-09T08:27:23.599Z,3.07
2019-02-09T08:29:52.529Z,4.20
2019-02-09T08:32:23.037Z,5.97
2019-02-09T08:34:54.083Z,4.57
2019-02-09T08:37:24.686Z,4.20
2019-02-09T08:39:55.241Z,7.40
2019-02-09T08:42:26.323Z,5.13
2019-02-09T08:44:56.809Z,4.77
2019-02-09T08:47:27.467Z,6.40
2019-02-09T08:49:57.802Z,8.80
2019-02-09T08:52:28.362Z,4.57
2019-02-09T08:54:58.801Z,6.93
2019-02-09T08:57:29.205Z,4.17
2019-02-09T09:00:00.242Z,5.50
2019-02-09T09:02:30.936Z,7.30
2019-02-09T09:05:09.392Z,4.47
2019-02-09T09:07:33.547Z,5.47
2019-02-09T09:10:05.056Z,6.57
2019-02-09T09:12:35.369Z,6.03
2019-02-09T09:15:09.037Z,3.17
2019-02-09T09:17:39.769Z,9.33
2019-02-09T09:20:15.026Z,5.97
2019-02-09T09:22:45.333Z,4.53
2019-02-09T09:25:16.245Z,6.03
2019-02-09T09:27:46.596Z,3.17
2019-02-09T09:30:19.619Z,3.20
2019-02-09T09:32:50.197Z,4.70
2019-02-09T09:35:20.824Z,4.63
2019-02-09T09:37:51.771Z,7.23
2019-02-09T09:40:24.746Z,1.90
2019-02-09T09:42:55.059Z,4.77
2019-02-09T09:45:27.981Z,2.67
2019-02-09T09:47:59.329Z,4.50
2019-02-09T09:50:30.486Z,7.40
2019-02-09T09:53:00.987Z,5.37
2019-02-09T09:55:31.606Z,4.20
2019-02-09T09:58:02.590Z,4.13
2019-02-09T10:00:33.158Z,2.97
2019-02-09T10:03:03.828Z,6.37
2019-02-09T10:05:34.418Z,10.33
2019-02-09T10:08:06.442Z,5.67
2019-02-09T10:10:37.162Z,7.37
2019-02-09T10:13:10.392Z,6.57
2019-02-09T10:15:41.146Z,7.57
2019-02-09T10:18:11.632Z,5.17
2019-02-09T10:20:42.069Z,5.17
2019-02-09T10:23:12.818Z,4.97
2019-02-09T10:25:43.142Z,2.60
2019-02-09T10:28:13.770Z,4.93
2019-02-09T10:30:44.156Z,8.17
2019-02-09T10:33:14.528Z,6.27
2019-02-09T10:35:44.935Z,4.67
2019-02-09T10:38:15.478Z,7.00
2019-02-09T10:40:46.046Z,9.40
2019-02-09T10:43:16.463Z,5.17
2019-02-09T10:45:46.923Z,9.73
2019-02-09T10:48:17.550Z,9.93
2019-02-09T10:50:47.993Z,8.47
2019-02-09T10:53:18.438Z,6.93
2019-02-09T10:55:48.920Z,5.30
2019-02-09T10:58:19.402Z,6.93
2019-02-09T11:00:56.871Z,5.87
2019-02-09T11:03:27.370Z,7.23
2019-02-09T11:05:57.845Z,11.43
2019-02-09T11:08:28.321Z,7.40
2019-02-09T11:10:59.027Z,5.50
2019-02-09T11:13:29.616Z,8.27
2019-02-09T11:16:01.514Z,6.30
2019-02-09T11:18:32.229Z,6.57
2019-02-09T11:21:02.570Z,5.37
2019-02-09T11:23:32.936Z,7.87
2019-02-09T11:26:03.328Z,7.40
2019-02-09T11:28:33.684Z,7.27
2019-02-09T11:31:06.406Z,9.50
2019-02-09T11:33:36.882Z,7.73
2019-02-09T11:36:07.259Z,7.33
2019-02-09T11:38:37.649Z,9.03
2019-02-09T11:41:08.026Z,13.33
2019-02-09T11:43:38.546Z,10.27
2019-02-09T11:46:09.014Z,6.87
2019-02-09T11:48:39.716Z,10.83
2019-02-09T11:51:10.710Z,8.50
2019-02-09T11:53:41.168Z,7.10
2019-02-09T11:56:11.674Z,16.77
2019-02-09T11:58:42.206Z,7.43
2019-02-09T12:01:12.716Z,7.53
2019-02-09T12:03:43.080Z,11.23
2019-02-09T12:06:14.030Z,6.90
2019-02-09T12:08:44.567Z,8.50
2019-02-09T12:11:14.957Z,8.33
2019-02-09T12:13:45.452Z,5.40
2019-02-09T12:16:15.732Z,8.97
2019-02-09T12:18:46.113Z,6.80
2019-02-09T12:21:16.561Z,13.70
2019-02-09T12:23:46.956Z,6.40
2019-02-09T12:26:17.475Z,6.63
2019-02-09T12:28:47.930Z,6.47
2019-02-09T12:31:18.352Z,12.73
2019-02-09T12:33:48.844Z,9.30
2019-02-09T12:36:19.357Z,9.77
2019-02-09T12:38:49.810Z,7.70
2019-02-09T12:41:20.222Z,10.63
2019-02-09T12:43:50.563Z,5.57
2019-02-09T12:46:20.975Z,10.33
2019-02-09T12:48:51.725Z,10.57
2019-02-09T12:51:22.142Z,11.20
2019-02-09T12:53:52.536Z,9.40
2019-02-09T12:56:23.088Z,7.20
2019-02-09T12:58:53.690Z,8.07
2019-02-09T13:01:23.895Z,10.37
2019-02-09T13:03:54.413Z,10.87
2019-02-09T13:06:24.865Z,8.23
2019-02-09T13:08:55.377Z,7.40
2019-02-09T13:11:25.689Z,11.20
2019-02-09T13:13:56.100Z,7.70
2019-02-09T13:16:26.624Z,11.70
2019-02-09T13:18:57.130Z,6.53
2019-02-09T13:21:27.641Z,12.97
2019-02-09T13:23:58.015Z,7.80
2019-02-09T13:26:28.625Z,5.70
2019-02-09T13:28:59.140Z,9.00
2019-02-09T13:31:29.682Z,10.33
2019-02-09T13:34:00.053Z,7.03
2019-02-09T13:36:30.491Z,13.23
2019-02-09T13:39:01.003Z,6.07
2019-02-09T13:41:31.409Z,7.53
2019-02-09T13:44:01.990Z,8.33
2019-02-09T13:46:32.858Z,11.17
2019-02-09T13:49:03.155Z,10.20
2019-02-09T13:51:36.573Z,6.63
2019-02-09T13:54:07.090Z,9.43
2019-02-09T13:56:37.444Z,7.13
2019-02-09T13:59:08.094Z,7.27
2019-02-09T14:01:38.485Z,6.87
2019-02-09T14:04:08.813Z,7.97
2019-02-09T14:06:39.437Z,6.60
2019-02-09T14:09:10.046Z,8.80
2019-02-09T14:11:40.544Z,6.20
2019-02-09T14:14:11.045Z,6.83
2019-02-09T14:16:41.542Z,11.07
2019-02-09T14:19:12.209Z,7.43
2019-02-09T14:21:42.626Z,8.53
2019-02-09T14:24:13.109Z,10.17
2019-02-09T14:26:45.428Z,8.53
2019-02-09T14:29:17.918Z,8.93
2019-02-09T14:31:48.015Z,7.53
2019-02-09T14:34:18.587Z,9.80
2019-02-09T14:36:49.085Z,9.03
2019-02-09T14:39:19.530Z,6.10
2019-02-09T14:41:49.881Z,9.33
2019-02-09T14:44:20.331Z,10.37
2019-02-09T14:46:50.722Z,9.27
2019-02-09T14:49:21.183Z,7.47
2019-02-09T14:51:51.679Z,9.63
2019-02-09T14:54:22.149Z,8.07
2019-02-09T14:56:52.657Z,6.43
2019-02-09T14:59:23.067Z,12.07
2019-02-09T15:01:53.645Z,6.73
2019-02-09T15:04:24.323Z,10.27
2019-02-09T15:06:55.520Z,6.73
2019-02-09T15:09:26.009Z,6.33
2019-02-09T15:11:56.602Z,4.53
2019-02-09T15:14:27.015Z,3.97
2019-02-09T15:17:05.056Z,7.43
2019-02-09T15:19:33.996Z,7.30
2019-02-09T15:22:04.709Z,6.87
2019-02-09T15:24:35.374Z,9.50
2019-02-09T15:27:06.018Z,6.57
2019-02-09T15:29:36.606Z,8.60
2019-02-09T15:32:07.299Z,9.73
2019-02-09T15:34:39.469Z,5.83
2019-02-09T15:37:09.769Z,7.77
2019-02-09T15:39:40.119Z,6.90
2019-02-09T15:42:10.618Z,12.73
2019-02-09T15:44:41.281Z,8.63
2019-02-09T15:47:11.895Z,7.47
2019-02-09T15:49:42.465Z,7.03
2019-02-09T15:52:12.862Z,8.70
2019-02-09T15:54:43.207Z,6.93
2019-02-09T15:57:13.719Z,10.60
2019-02-09T15:59:44.270Z,8.33
2019-02-09T16:02:14.683Z,9.63
2019-02-09T16:04:45.107Z,11.63
2019-02-09T16:07:15.572Z,10.60
2019-02-09T16:09:46.075Z,7.50
2019-02-09T16:12:16.573Z,10.47
2019-02-09T16:14:47.036Z,4.93
2019-02-09T16:17:17.596Z,10.80
2019-02-09T16:19:50.525Z,14.70
2019-02-09T16:22:20.264Z,6.87
2019-02-09T16:24:50.619Z,10.30
2019-02-09T16:27:21.074Z,8.47
2019-02-09T16:29:51.461Z,7.60
2019-02-09T16:32:21.703Z,9.20
2019-02-09T16:34:51.942Z,7.13
2019-02-09T16:37:22.070Z,7.40
2019-02-09T16:39:52.267Z,8.37
2019-02-09T16:42:22.621Z,9.27
2019-02-09T16:44:52.856Z,8.43
2019-02-09T16:47:23.119Z,7.67
2019-02-09T16:49:53.630Z,8.40
2019-02-09T16:52:23.924Z,11.67
2019-02-09T16:54:54.580Z,7.33
2019-02-09T16:57:25.314Z,10.00
2019-02-09T16:59:55.782Z,9.20
2019-02-09T17:02:26.122Z,12.47
2019-02-09T17:04:56.472Z,12.30
2019-02-09T17:07:26.774Z,7.77
2019-02-09T17:09:57.010Z,7.77
2019-02-09T17:12:27.920Z,6.37
2019-02-09T17:14:58.291Z,6.17
2019-02-09T17:17:28.638Z,7.80
2019-02-09T17:19:59.137Z,7.43
2019-02-09T17:22:29.498Z,7.63
2019-02-09T17:24:59.893Z,6.33
2019-02-09T17:27:30.184Z,8.47
2019-02-09T17:30:00.648Z,6.03
2019-02-09T17:32:31.086Z,7.00
2019-02-09T17:35:01.544Z,6.07
2019-02-09T17:37:31.843Z,6.80
2019-02-09T17:40:03.735Z,6.53
2019-02-09T17:42:34.170Z,8.00
2019-02-09T17:45:04.792Z,6.43
2019-02-09T17:47:35.243Z,3.97
2019-02-09T17:50:06.766Z,10.83
2019-02-09T17:52:38.856Z,8.30
2019-02-09T17:55:14.012Z,6.67
2019-02-09T17:57:44.291Z,8.13
2019-02-09T18:00:17.297Z,8.07
2019-02-09T18:02:47.594Z,7.97
2019-02-09T18:05:18.120Z,5.67
2019-02-09T18:07:48.458Z,6.50
2019-02-09T18:10:18.800Z,8.60
2019-02-09T18:12:49.103Z,8.10
2019-02-09T18:15:19.868Z,7.13
2019-02-09T18:17:51.893Z,9.07
2019-02-09T18:20:22.212Z,10.33
2019-02-09T18:22:52.440Z,6.50
2019-02-09T18:25:23.116Z,6.20
2019-02-09T18:27:53.514Z,6.33
2019-02-09T18:30:23.934Z,10.77
2019-02-09T18:32:54.846Z,8.20
2019-02-09T18:35:25.172Z,11.97
2019-02-09T18:37:55.564Z,8.50
2019-02-09T18:40:26.112Z,8.57
2019-02-09T18:42:56.503Z,6.60
2019-02-09T18:45:28.308Z,8.47
2019-02-09T18:47:58.786Z,8.10
2019-02-09T18:50:29.835Z,7.43
2019-02-09T18:53:00.364Z,12.87
2019-02-09T18:55:31.236Z,15.13
2019-02-09T18:58:01.523Z,8.60
2019-02-09T19:00:32.663Z,11.70
2019-02-09T19:03:03.228Z,9.83
2019-02-09T19:05:33.768Z,11.37
2019-02-09T19:08:05.210Z,8.87
2019-02-09T19:10:35.730Z,10.07
2019-02-09T19:13:06.471Z,11.53
2019-02-09T19:15:36.984Z,12.73
2019-02-09T19:18:07.930Z,11.40
2019-02-09T19:20:41.097Z,8.93
2019-02-09T19:23:15.518Z,10.07
2019-02-09T19:25:45.933Z,6.87
2019-02-09T19:28:16.316Z,9.53
2019-02-09T19:30:46.906Z,11.07
2019-02-09T19:33:17.225Z,7.13
2019-02-09T19:35:47.875Z,7.67
2019-02-09T19:38:18.180Z,11.33
2019-02-09T19:40:48.675Z,10.43
2019-02-09T19:43:18.945Z,7.73
2019-02-09T19:45:49.259Z,9.27
2019-02-09T19:48:21.238Z,11.83
2019-02-09T19:50:52.131Z,13.33
2019-02-09T19:53:22.928Z,9.17
2019-02-09T19:55:53.863Z,10.20
2019-02-09T19:58:24.198Z,10.87
2019-02-09T20:00:54.611Z,10.73
2019-02-09T20:03:25.026Z,13.57
2019-02-09T20:05:55.466Z,13.70
2019-02-09T20:08:25.923Z,11.63
2019-02-09T20:10:56.338Z,8.63
2019-02-09T20:13:26.754Z,8.27
2019-02-09T20:15:57.178Z,4.73
2019-02-09T20:18:27.633Z,10.20
2019-02-09T20:20:59.705Z,13.37
2019-02-09T20:23:30.162Z,9.63
2019-02-09T20:26:00.389Z,9.43
2019-02-09T20:28:30.663Z,8.07
2019-02-09T20:31:00.987Z,11.27
2019-02-09T20:33:31.518Z,10.73
2019-02-09T20:36:02.186Z,11.80
2019-02-09T20:38:32.889Z,9.90
2019-02-09T20:41:05.916Z,8.00
2019-02-09T20:43:36.270Z,7.47
2019-02-09T20:46:06.780Z,6.23
2019-02-09T20:48:37.665Z,6.97
2019-02-09T20:51:08.019Z,6.87
2019-02-09T20:53:38.405Z,9.00
2019-02-09T20:56:08.900Z,11.57
2019-02-09T20:58:39.452Z,11.03
2019-02-09T21:01:09.729Z,5.30
2019-02-09T21:03:40.243Z,10.67
2019-02-09T21:06:10.581Z,11.77
2019-02-09T21:08:41.033Z,11.27
2019-02-09T21:11:11.285Z,7.33
2019-02-09T21:13:41.724Z,6.93
2019-02-09T21:16:12.046Z,6.40
2019-02-09T21:18:42.523Z,7.57
2019-02-09T21:21:12.891Z,8.70
2019-02-09T21:23:43.273Z,11.40
2019-02-09T21:26:13.648Z,11.87
2019-02-09T21:28:44.009Z,10.47
2019-02-09T21:31:14.325Z,10.33
2019-02-09T21:33:44.649Z,13.37
2019-02-09T21:36:15.027Z,7.47
2019-02-09T21:38:45.462Z,15.33
2019-02-09T21:41:15.755Z,12.70
2019-02-09T21:43:46.166Z,14.70
2019-02-09T21:46:16.442Z,18.90
2019-02-09T21:48:48.501Z,16.57
2019-02-09T21:51:18.879Z,13.97
2019-02-09T21:53:49.220Z,15.63
2019-02-09T21:56:19.641Z,14.03
2019-02-09T21:58:49.977Z,9.10
2019-02-09T22:01:20.364Z,8.20
2019-02-09T22:03:50.649Z,10.63
2019-02-09T22:06:21.082Z,14.53
2019-02-09T22:08:51.430Z,12.90
2019-02-09T22:11:21.810Z,9.60
2019-02-09T22:13:52.193Z,7.23
2019-02-09T22:16:22.469Z,9.03
2019-02-09T22:18:53.025Z,10.27
2019-02-09T22:21:23.717Z,12.07
2019-02-09T22:23:54.232Z,13.50
2019-02-09T22:26:24.919Z,10.33
2019-02-09T22:28:55.261Z,15.13
2019-02-09T22:31:25.765Z,7.30
2019-02-09T22:33:56.110Z,11.60
2019-02-09T22:36:26.504Z,13.67
2019-02-09T22:38:56.846Z,11.77
2019-02-09T22:41:27.251Z,9.70
2019-02-09T22:43:57.625Z,8.43
2019-02-09T22:46:27.942Z,11.83
2019-02-09T22:48:58.302Z,8.77
2019-02-09T22:51:28.627Z,10.97
2019-02-09T22:53:58.996Z,10.07
2019-02-09T22:56:29.345Z,10.17
2019-02-09T22:58:59.927Z,10.67
2019-02-09T23:01:44.128Z,7.33
2019-02-09T23:04:51.623Z,12.93
2019-02-09T23:07:40.449Z,9.90
2019-02-09T23:10:13.273Z,12.53
2019-02-09T23:12:48.690Z,13.07
2019-02-09T23:15:15.760Z,10.10
2019-02-09T23:17:46.239Z,11.30
2019-02-09T23:20:18.169Z,12.97
2019-02-09T23:22:48.708Z,13.43
2019-02-09T23:25:19.143Z,9.63
2019-02-09T23:27:49.506Z,11.70
2019-02-09T23:30:20.115Z,8.57
2019-02-09T23:32:50.437Z,10.33
2019-02-09T23:35:20.751Z,11.40
2019-02-09T23:37:50.951Z,8.67
2019-02-09T23:40:21.161Z,12.30
2019-02-09T23:42:51.462Z,10.23
2019-02-09T23:45:21.942Z,11.27
2019-02-09T23:47:52.437Z,7.03
2019-02-09T23:50:22.761Z,11.37
2019-02-09T23:52:53.089Z,10.60
2019-02-09T23:55:23.431Z,9.43
2019-02-09T23:57:53.766Z,12.17
